sensor_id;sensor_type;location;lat;lon;timestamp;P1;durP1;ratioP1;P2;durP2;ratioP2
14474;SDS011;7323;50.848;4.334;2023-05-10T00:00:14;11.77;;;6.87;;
14474;SDS011;7323;50.848;4.334;2023-05-10T00:02:40;11.83;;;7.30;;
14474;SDS011;7323;50.848;4.334;2023-05-10T00:05:06;10.63;;;7.03;;
14474;SDS011;7323;50.848;4.334;2023-05-10T00:07:33;11.47;;;7.37;;
14474;SDS011;7323;50.848;4.334;2023-05-10T00:09:59;13.63;;;7.50;;
14474;SDS011;7323;50.848;4.334;2023-05-10T00:12:25;10.60;;;7.00;;
14474;SDS011;7323;50.848;4.334;2023-05-10T00:14:50;8.97;;;6.97;;
14474;SDS011;7323;50.848;4.334;2023-05-10T00:17:16;10.40;;;7.57;;
14474;SDS011;7323;50.848;4.334;2023-05-10T00:19:42;11.90;;;7.80;;
14474;SDS011;7323;50.848;4.334;2023-05-10T00:22:07;10.57;;;7.40;;
14474;SDS011;7323;50.848;4.334;2023-05-10T00:24:33;12.93;;;7.33;;
14474;SDS011;7323;50.848;4.334;2023-05-10T00:26:58;11.37;;;7.60;;
14474;SDS011;7323;50.848;4.334;2023-05-10T00:29:25;11.97;;;7.10;;
14474;SDS011;7323;50.848;4.334;2023-05-10T00:31:53;10.47;;;7.40;;
14474;SDS011;7323;50.848;4.334;2023-05-10T00:34:18;13.40;;;8.20;;
14474;SDS011;7323;50.848;4.334;2023-05-10T00:36:44;11.87;;;7.50;;
14474;SDS011;7323;50.848;4.334;2023-05-10T00:39:10;12.13;;;8.30;;
14474;SDS011;7323;50.848;4.334;2023-05-10T00:41:36;11.13;;;7.60;;
14474;SDS011;7323;50.848;4.334;2023-05-10T00:44:02;13.90;;;7.60;;
14474;SDS011;7323;50.848;4.334;2023-05-10T00:46:27;11.37;;;7.80;;
14474;SDS011;7323;50.848;4.334;2023-05-10T00:48:54;12.23;;;8.13;;
14474;SDS011;7323;50.848;4.334;2023-05-10T00:51:19;11.87;;;8.17;;
14474;SDS011;7323;50.848;4.334;2023-05-10T00:53:46;11.90;;;7.80;;
14474;SDS011;7323;50.848;4.334;2023-05-10T00:56:12;12.33;;;8.67;;
14474;SDS011;7323;50.848;4.334;2023-05-10T00:58:38;11.30;;;7.80;;
14474;SDS011;7323;50.848;4.334;2023-05-10T01:01:04;11.33;;;7.93;;
14474;SDS011;7323;50.848;4.334;2023-05-10T01:03:31;11.90;;;8.10;;
14474;SDS011;7323;50.848;4.334;2023-05-10T01:05:57;12.37;;;7.90;;
14474;SDS011;7323;50.848;4.334;2023-05-10T01:08:23;13.53;;;9.20;;
14474;SDS011;7323;50.848;4.334;2023-05-10T01:10:50;12.67;;;8.47;;
14474;SDS011;7323;50.848;4.334;2023-05-10T01:13:33;12.07;;;8.77;;
14474;SDS011;7323;50.848;4.334;2023-05-10T01:16:03;14.00;;;8.90;;
14474;SDS011;7323;50.848;4.334;2023-05-10T01:18:30;14.57;;;9.07;;
14474;SDS011;7323;50.848;4.334;2023-05-10T01:34:32;16.27;;;11.17;;
14474;SDS011;7323;50.848;4.334;2023-05-10T01:38:02;15.27;;;10.93;;
14474;SDS011;7323;50.848;4.334;2023-05-10T01:40:04;14.50;;;10.50;;
14474;SDS011;7323;50.848;4.334;2023-05-10T01:42:41;15.17;;;10.60;;
14474;SDS011;7323;50.848;4.334;2023-05-10T01:47:58;15.53;;;10.13;;
14474;SDS011;7323;50.848;4.334;2023-05-10T01:50:41;15.33;;;10.70;;
14474;SDS011;7323;50.848;4.334;2023-05-10T01:53:09;15.93;;;9.70;;
14474;SDS011;7323;50.848;4.334;2023-05-10T01:55:41;13.97;;;10.13;;
14474;SDS011;7323;50.848;4.334;2023-05-10T01:58:16;14.57;;;10.73;;
14474;SDS011;7323;50.848;4.334;2023-05-10T02:00:46;15.23;;;10.77;;
14474;SDS011;7323;50.848;4.334;2023-05-10T02:03:14;13.80;;;10.47;;
14474;SDS011;7323;50.848;4.334;2023-05-10T02:05:43;13.97;;;10.17;;
14474;SDS011;7323;50.848;4.334;2023-05-10T02:08:11;15.97;;;11.10;;
14474;SDS011;7323;50.848;4.334;2023-05-10T02:10:40;14.80;;;11.13;;
14474;SDS011;7323;50.848;4.334;2023-05-10T02:13:07;15.70;;;11.67;;
14474;SDS011;7323;50.848;4.334;2023-05-10T02:15:35;17.23;;;11.93;;
14474;SDS011;7323;50.848;4.334;2023-05-10T02:18:03;14.93;;;11.97;;
14474;SDS011;7323;50.848;4.334;2023-05-10T02:20:31;17.13;;;12.83;;
14474;SDS011;7323;50.848;4.334;2023-05-10T02:22:58;17.53;;;11.83;;
14474;SDS011;7323;50.848;4.334;2023-05-10T02:25:26;19.43;;;12.93;;
14474;SDS011;7323;50.848;4.334;2023-05-10T02:27:54;17.20;;;11.97;;
14474;SDS011;7323;50.848;4.334;2023-05-10T02:30:21;16.17;;;12.43;;
14474;SDS011;7323;50.848;4.334;2023-05-10T02:32:48;16.40;;;11.70;;
14474;SDS011;7323;50.848;4.334;2023-05-10T02:35:15;18.33;;;12.53;;
14474;SDS011;7323;50.848;4.334;2023-05-10T02:37:41;16.57;;;11.70;;
14474;SDS011;7323;50.848;4.334;2023-05-10T02:40:10;17.57;;;12.20;;
14474;SDS011;7323;50.848;4.334;2023-05-10T02:42:37;15.80;;;10.90;;
14474;SDS011;7323;50.848;4.334;2023-05-10T02:45:07;17.20;;;12.60;;
14474;SDS011;7323;50.848;4.334;2023-05-10T02:47:37;17.00;;;11.87;;
14474;SDS011;7323;50.848;4.334;2023-05-10T02:50:03;16.73;;;11.50;;
14474;SDS011;7323;50.848;4.334;2023-05-10T02:52:30;15.43;;;11.07;;
14474;SDS011;7323;50.848;4.334;2023-05-10T02:55:11;14.37;;;11.10;;
14474;SDS011;7323;50.848;4.334;2023-05-10T02:57:46;17.27;;;11.73;;
14474;SDS011;7323;50.848;4.334;2023-05-10T03:00:16;17.27;;;11.43;;
14474;SDS011;7323;50.848;4.334;2023-05-10T03:02:43;16.23;;;11.43;;
14474;SDS011;7323;50.848;4.334;2023-05-10T03:05:08;14.17;;;10.90;;
14474;SDS011;7323;50.848;4.334;2023-05-10T03:07:34;15.43;;;11.47;;
14474;SDS011;7323;50.848;4.334;2023-05-10T03:10:00;17.33;;;11.90;;
14474;SDS011;7323;50.848;4.334;2023-05-10T03:12:44;20.00;;;12.73;;
14474;SDS011;7323;50.848;4.334;2023-05-10T03:15:27;16.73;;;12.60;;
14474;SDS011;7323;50.848;4.334;2023-05-10T03:18:59;16.67;;;11.23;;
14474;SDS011;7323;50.848;4.334;2023-05-10T03:21:07;22.07;;;12.93;;
14474;SDS011;7323;50.848;4.334;2023-05-10T03:23:41;18.03;;;11.60;;
14474;SDS011;7323;50.848;4.334;2023-05-10T03:26:12;14.57;;;11.77;;
14474;SDS011;7323;50.848;4.334;2023-05-10T03:28:51;16.57;;;12.53;;
14474;SDS011;7323;50.848;4.334;2023-05-10T03:31:18;18.63;;;12.37;;
14474;SDS011;7323;50.848;4.334;2023-05-10T03:33:47;16.80;;;12.77;;
14474;SDS011;7323;50.848;4.334;2023-05-10T03:36:13;16.67;;;12.37;;
14474;SDS011;7323;50.848;4.334;2023-05-10T03:38:39;20.50;;;14.43;;
14474;SDS011;7323;50.848;4.334;2023-05-10T03:41:05;18.87;;;13.33;;
14474;SDS011;7323;50.848;4.334;2023-05-10T03:43:31;21.70;;;14.87;;
14474;SDS011;7323;50.848;4.334;2023-05-10T03:45:56;21.37;;;14.87;;
14474;SDS011;7323;50.848;4.334;2023-05-10T03:48:22;20.87;;;14.33;;
14474;SDS011;7323;50.848;4.334;2023-05-10T03:50:48;21.10;;;15.83;;
14474;SDS011;7323;50.848;4.334;2023-05-10T03:53:14;24.17;;;16.43;;
14474;SDS011;7323;50.848;4.334;2023-05-10T03:55:40;20.67;;;14.87;;
14474;SDS011;7323;50.848;4.334;2023-05-10T03:58:06;20.37;;;15.27;;
14474;SDS011;7323;50.848;4.334;2023-05-10T04:00:35;20.57;;;15.13;;
14474;SDS011;7323;50.848;4.334;2023-05-10T04:03:01;23.33;;;16.33;;
14474;SDS011;7323;50.848;4.334;2023-05-10T04:05:26;22.50;;;15.53;;
14474;SDS011;7323;50.848;4.334;2023-05-10T04:07:52;26.47;;;17.73;;
14474;SDS011;7323;50.848;4.334;2023-05-10T04:10:18;25.47;;;17.07;;
14474;SDS011;7323;50.848;4.334;2023-05-10T04:12:43;23.00;;;17.23;;
14474;SDS011;7323;50.848;4.334;2023-05-10T04:15:09;26.73;;;18.03;;
14474;SDS011;7323;50.848;4.334;2023-05-10T04:17:36;24.67;;;18.47;;
14474;SDS011;7323;50.848;4.334;2023-05-10T04:20:02;23.80;;;18.20;;
14474;SDS011;7323;50.848;4.334;2023-05-10T04:22:28;25.60;;;18.53;;
14474;SDS011;7323;50.848;4.334;2023-05-10T04:24:57;24.60;;;18.40;;
14474;SDS011;7323;50.848;4.334;2023-05-10T04:27:23;27.57;;;19.27;;
14474;SDS011;7323;50.848;4.334;2023-05-10T04:29:48;26.57;;;19.00;;
14474;SDS011;7323;50.848;4.334;2023-05-10T04:32:14;32.03;;;20.80;;
14474;SDS011;7323;50.848;4.334;2023-05-10T04:34:41;28.60;;;20.13;;
14474;SDS011;7323;50.848;4.334;2023-05-10T04:37:06;25.87;;;19.27;;
14474;SDS011;7323;50.848;4.334;2023-05-10T04:39:32;26.47;;;19.63;;
14474;SDS011;7323;50.848;4.334;2023-05-10T04:41:58;24.50;;;18.30;;
14474;SDS011;7323;50.848;4.334;2023-05-10T04:44:25;23.10;;;18.83;;
14474;SDS011;7323;50.848;4.334;2023-05-10T04:46:50;27.87;;;19.13;;
14474;SDS011;7323;50.848;4.334;2023-05-10T04:49:17;26.03;;;19.87;;
14474;SDS011;7323;50.848;4.334;2023-05-10T04:51:43;25.50;;;19.40;;
14474;SDS011;7323;50.848;4.334;2023-05-10T04:54:09;26.77;;;19.77;;
14474;SDS011;7323;50.848;4.334;2023-05-10T04:56:35;27.47;;;20.13;;
14474;SDS011;7323;50.848;4.334;2023-05-10T04:59:00;29.10;;;20.70;;
14474;SDS011;7323;50.848;4.334;2023-05-10T05:01:26;30.93;;;19.87;;
14474;SDS011;7323;50.848;4.334;2023-05-10T05:03:52;26.30;;;20.47;;
14474;SDS011;7323;50.848;4.334;2023-05-10T05:06:18;27.77;;;20.83;;
14474;SDS011;7323;50.848;4.334;2023-05-10T05:08:46;27.43;;;20.83;;
14474;SDS011;7323;50.848;4.334;2023-05-10T05:11:11;24.13;;;19.87;;
14474;SDS011;7323;50.848;4.334;2023-05-10T05:13:37;28.63;;;21.03;;
14474;SDS011;7323;50.848;4.334;2023-05-10T05:16:03;25.07;;;19.57;;
14474;SDS011;7323;50.848;4.334;2023-05-10T05:18:30;23.90;;;17.90;;
14474;SDS011;7323;50.848;4.334;2023-05-10T05:20:55;24.57;;;17.73;;
14474;SDS011;7323;50.848;4.334;2023-05-10T05:23:21;23.50;;;16.93;;
14474;SDS011;7323;50.848;4.334;2023-05-10T05:25:50;16.00;;;12.87;;
14474;SDS011;7323;50.848;4.334;2023-05-10T05:28:17;17.47;;;12.87;;
14474;SDS011;7323;50.848;4.334;2023-05-10T05:30:43;16.60;;;13.57;;
14474;SDS011;7323;50.848;4.334;2023-05-10T05:33:09;20.23;;;13.77;;
14474;SDS011;7323;50.848;4.334;2023-05-10T05:35:35;14.97;;;12.37;;
14474;SDS011;7323;50.848;4.334;2023-05-10T05:38:00;15.70;;;11.63;;
14474;SDS011;7323;50.848;4.334;2023-05-10T05:40:26;15.27;;;12.07;;
14474;SDS011;7323;50.848;4.334;2023-05-10T05:42:52;19.33;;;13.70;;
14474;SDS011;7323;50.848;4.334;2023-05-10T05:45:17;19.00;;;13.93;;
14474;SDS011;7323;50.848;4.334;2023-05-10T05:47:43;18.83;;;13.90;;
14474;SDS011;7323;50.848;4.334;2023-05-10T05:50:09;19.23;;;14.57;;
14474;SDS011;7323;50.848;4.334;2023-05-10T05:52:35;23.20;;;14.93;;
14474;SDS011;7323;50.848;4.334;2023-05-10T05:55:01;22.43;;;15.27;;
14474;SDS011;7323;50.848;4.334;2023-05-10T05:57:29;21.10;;;15.40;;
14474;SDS011;7323;50.848;4.334;2023-05-10T05:59:55;21.30;;;15.60;;
14474;SDS011;7323;50.848;4.334;2023-05-10T06:02:21;20.37;;;14.53;;
14474;SDS011;7323;50.848;4.334;2023-05-10T06:04:47;20.80;;;15.47;;
14474;SDS011;7323;50.848;4.334;2023-05-10T06:07:13;21.63;;;14.17;;
14474;SDS011;7323;50.848;4.334;2023-05-10T06:09:39;20.30;;;15.43;;
14474;SDS011;7323;50.848;4.334;2023-05-10T06:12:04;22.93;;;14.73;;
14474;SDS011;7323;50.848;4.334;2023-05-10T06:14:30;20.17;;;14.30;;
14474;SDS011;7323;50.848;4.334;2023-05-10T06:16:57;19.50;;;14.93;;
14474;SDS011;7323;50.848;4.334;2023-05-10T06:19:24;19.77;;;14.17;;
14474;SDS011;7323;50.848;4.334;2023-05-10T06:21:51;19.97;;;14.97;;
14474;SDS011;7323;50.848;4.334;2023-05-10T06:24:16;21.93;;;15.63;;
14474;SDS011;7323;50.848;4.334;2023-05-10T06:26:42;19.27;;;13.07;;
14474;SDS011;7323;50.848;4.334;2023-05-10T06:29:08;16.83;;;11.77;;
14474;SDS011;7323;50.848;4.334;2023-05-10T06:31:34;19.00;;;13.97;;
14474;SDS011;7323;50.848;4.334;2023-05-10T06:34:01;14.03;;;9.90;;
14474;SDS011;7323;50.848;4.334;2023-05-10T06:36:27;14.40;;;11.07;;
14474;SDS011;7323;50.848;4.334;2023-05-10T06:38:53;15.97;;;11.90;;
14474;SDS011;7323;50.848;4.334;2023-05-10T06:41:19;14.87;;;9.53;;
14474;SDS011;7323;50.848;4.334;2023-05-10T06:43:45;13.87;;;9.70;;
14474;SDS011;7323;50.848;4.334;2023-05-10T06:46:11;15.90;;;9.73;;
14474;SDS011;7323;50.848;4.334;2023-05-10T06:48:36;16.63;;;10.43;;
14474;SDS011;7323;50.848;4.334;2023-05-10T06:51:02;17.47;;;10.57;;
14474;SDS011;7323;50.848;4.334;2023-05-10T06:53:34;17.10;;;10.87;;
14474;SDS011;7323;50.848;4.334;2023-05-10T06:56:01;16.90;;;11.33;;
14474;SDS011;7323;50.848;4.334;2023-05-10T07:01:09;16.70;;;10.67;;
14474;SDS011;7323;50.848;4.334;2023-05-10T07:03:35;18.37;;;10.87;;
14474;SDS011;7323;50.848;4.334;2023-05-10T07:06:01;15.77;;;11.37;;
14474;SDS011;7323;50.848;4.334;2023-05-10T07:11:03;20.17;;;11.63;;
14474;SDS011;7323;50.848;4.334;2023-05-10T07:13:41;18.23;;;11.77;;
14474;SDS011;7323;50.848;4.334;2023-05-10T07:16:10;21.23;;;12.20;;
14474;SDS011;7323;50.848;4.334;2023-05-10T07:18:37;19.10;;;11.83;;
14474;SDS011;7323;50.848;4.334;2023-05-10T07:21:08;18.10;;;13.63;;
14474;SDS011;7323;50.848;4.334;2023-05-10T07:23:37;23.57;;;12.30;;
14474;SDS011;7323;50.848;4.334;2023-05-10T07:26:09;21.73;;;12.57;;
14474;SDS011;7323;50.848;4.334;2023-05-10T07:31:09;16.53;;;11.10;;
14474;SDS011;7323;50.848;4.334;2023-05-10T07:33:35;15.00;;;9.80;;
14474;SDS011;7323;50.848;4.334;2023-05-10T07:36:01;16.53;;;10.67;;
14474;SDS011;7323;50.848;4.334;2023-05-10T07:38:26;17.07;;;10.47;;
14474;SDS011;7323;50.848;4.334;2023-05-10T07:43:22;17.67;;;10.97;;
14474;SDS011;7323;50.848;4.334;2023-05-10T07:45:50;19.80;;;11.57;;
14474;SDS011;7323;50.848;4.334;2023-05-10T07:48:21;18.50;;;10.97;;
14474;SDS011;7323;50.848;4.334;2023-05-10T07:50:50;18.83;;;11.73;;
14474;SDS011;7323;50.848;4.334;2023-05-10T07:53:16;19.63;;;11.50;;
14474;SDS011;7323;50.848;4.334;2023-05-10T07:55:49;15.83;;;11.07;;
14474;SDS011;7323;50.848;4.334;2023-05-10T07:58:16;14.17;;;9.60;;
14474;SDS011;7323;50.848;4.334;2023-05-10T08:00:46;18.43;;;10.60;;
14474;SDS011;7323;50.848;4.334;2023-05-10T08:03:15;14.10;;;9.97;;
14474;SDS011;7323;50.848;4.334;2023-05-10T08:05:45;15.17;;;9.60;;
14474;SDS011;7323;50.848;4.334;2023-05-10T08:08:11;15.13;;;9.63;;
14474;SDS011;7323;50.848;4.334;2023-05-10T08:10:37;14.03;;;8.63;;
14474;SDS011;7323;50.848;4.334;2023-05-10T08:13:07;14.00;;;8.77;;
14474;SDS011;7323;50.848;4.334;2023-05-10T08:15:33;11.70;;;8.27;;
14474;SDS011;7323;50.848;4.334;2023-05-10T08:17:59;10.37;;;7.93;;
14474;SDS011;7323;50.848;4.334;2023-05-10T08:20:24;10.93;;;7.37;;
14474;SDS011;7323;50.848;4.334;2023-05-10T08:22:51;8.13;;;6.40;;
14474;SDS011;7323;50.848;4.334;2023-05-10T08:25:17;10.17;;;6.43;;
14474;SDS011;7323;50.848;4.334;2023-05-10T08:27:47;8.07;;;6.13;;
14474;SDS011;7323;50.848;4.334;2023-05-10T08:30:13;8.17;;;6.07;;
14474;SDS011;7323;50.848;4.334;2023-05-10T08:32:41;9.83;;;5.87;;
14474;SDS011;7323;50.848;4.334;2023-05-10T08:35:06;9.33;;;6.20;;
14474;SDS011;7323;50.848;4.334;2023-05-10T08:37:32;10.67;;;6.50;;
14474;SDS011;7323;50.848;4.334;2023-05-10T08:39:58;9.43;;;6.43;;
14474;SDS011;7323;50.848;4.334;2023-05-10T08:42:24;9.53;;;6.63;;
14474;SDS011;7323;50.848;4.334;2023-05-10T08:44:53;12.07;;;7.50;;
14474;SDS011;7323;50.848;4.334;2023-05-10T08:47:19;7.83;;;6.10;;
14474;SDS011;7323;50.848;4.334;2023-05-10T08:49:46;9.07;;;6.40;;
14474;SDS011;7323;50.848;4.334;2023-05-10T08:52:18;9.63;;;6.40;;
14474;SDS011;7323;50.848;4.334;2023-05-10T08:54:44;9.90;;;6.87;;
14474;SDS011;7323;50.848;4.334;2023-05-10T08:57:14;7.63;;;6.60;;
14474;SDS011;7323;50.848;4.334;2023-05-10T08:59:45;8.30;;;6.93;;
14474;SDS011;7323;50.848;4.334;2023-05-10T09:02:13;9.20;;;7.00;;
14474;SDS011;7323;50.848;4.334;2023-05-10T09:04:40;9.17;;;6.93;;
14474;SDS011;7323;50.848;4.334;2023-05-10T09:07:06;9.70;;;6.80;;
14474;SDS011;7323;50.848;4.334;2023-05-10T09:09:32;13.13;;;7.17;;
14474;SDS011;7323;50.848;4.334;2023-05-10T09:12:00;9.20;;;7.17;;
14474;SDS011;7323;50.848;4.334;2023-05-10T09:14:25;9.73;;;7.47;;
14474;SDS011;7323;50.848;4.334;2023-05-10T09:16:52;10.23;;;7.90;;
14474;SDS011;7323;50.848;4.334;2023-05-10T09:19:21;10.87;;;7.60;;
14474;SDS011;7323;50.848;4.334;2023-05-10T09:21:47;9.60;;;7.97;;
14474;SDS011;7323;50.848;4.334;2023-05-10T09:24:14;9.97;;;7.10;;
14474;SDS011;7323;50.848;4.334;2023-05-10T09:26:47;10.37;;;7.73;;
14474;SDS011;7323;50.848;4.334;2023-05-10T09:29:13;9.93;;;6.87;;
14474;SDS011;7323;50.848;4.334;2023-05-10T09:31:49;8.07;;;6.07;;
14474;SDS011;7323;50.848;4.334;2023-05-10T09:34:20;7.50;;;5.80;;
14474;SDS011;7323;50.848;4.334;2023-05-10T09:36:59;7.50;;;6.13;;
14474;SDS011;7323;50.848;4.334;2023-05-10T09:39:33;7.50;;;6.07;;
14474;SDS011;7323;50.848;4.334;2023-05-10T09:42:01;7.13;;;6.20;;
14474;SDS011;7323;50.848;4.334;2023-05-10T09:44:31;7.40;;;5.43;;
14474;SDS011;7323;50.848;4.334;2023-05-10T09:46:58;8.70;;;5.70;;
14474;SDS011;7323;50.848;4.334;2023-05-10T09:49:24;7.03;;;5.73;;
14474;SDS011;7323;50.848;4.334;2023-05-10T09:52:01;7.23;;;6.07;;
14474;SDS011;7323;50.848;4.334;2023-05-10T09:54:28;6.97;;;6.07;;
14474;SDS011;7323;50.848;4.334;2023-05-10T09:56:54;8.23;;;5.67;;
14474;SDS011;7323;50.848;4.334;2023-05-10T09:59:20;7.70;;;6.13;;
14474;SDS011;7323;50.848;4.334;2023-05-10T10:01:52;8.97;;;6.07;;
14474;SDS011;7323;50.848;4.334;2023-05-10T10:04:21;9.27;;;7.00;;
14474;SDS011;7323;50.848;4.334;2023-05-10T10:06:47;8.30;;;7.03;;
14474;SDS011;7323;50.848;4.334;2023-05-10T10:09:24;9.53;;;6.50;;
14474;SDS011;7323;50.848;4.334;2023-05-10T10:11:51;8.50;;;6.27;;
14474;SDS011;7323;50.848;4.334;2023-05-10T10:14:19;8.13;;;6.80;;
14474;SDS011;7323;50.848;4.334;2023-05-10T10:16:46;8.13;;;6.40;;
14474;SDS011;7323;50.848;4.334;2023-05-10T10:19:14;7.30;;;6.60;;
14474;SDS011;7323;50.848;4.334;2023-05-10T10:21:40;8.47;;;7.10;;
14474;SDS011;7323;50.848;4.334;2023-05-10T10:24:06;7.37;;;6.40;;
14474;SDS011;7323;50.848;4.334;2023-05-10T10:26:35;6.90;;;6.20;;
14474;SDS011;7323;50.848;4.334;2023-05-10T10:29:15;7.80;;;6.83;;
14474;SDS011;7323;50.848;4.334;2023-05-10T10:34:47;9.17;;;6.63;;
14474;SDS011;7323;50.848;4.334;2023-05-10T10:37:13;9.07;;;6.93;;
14474;SDS011;7323;50.848;4.334;2023-05-10T10:39:39;7.20;;;6.43;;
14474;SDS011;7323;50.848;4.334;2023-05-10T10:42:04;8.13;;;6.70;;
14474;SDS011;7323;50.848;4.334;2023-05-10T10:49:48;9.17;;;6.67;;
14474;SDS011;7323;50.848;4.334;2023-05-10T10:52:36;8.80;;;6.20;;
14474;SDS011;7323;50.848;4.334;2023-05-10T10:55:10;9.27;;;7.17;;
14474;SDS011;7323;50.848;4.334;2023-05-10T11:00:51;10.73;;;8.30;;
14474;SDS011;7323;50.848;4.334;2023-05-10T11:03:01;9.20;;;7.87;;
14474;SDS011;7323;50.848;4.334;2023-05-10T11:05:36;10.37;;;7.50;;
14474;SDS011;7323;50.848;4.334;2023-05-10T11:08:13;12.33;;;7.70;;
14474;SDS011;7323;50.848;4.334;2023-05-10T11:13:46;9.70;;;6.87;;
14474;SDS011;7323;50.848;4.334;2023-05-10T11:16:14;7.97;;;6.00;;
14474;SDS011;7323;50.848;4.334;2023-05-10T11:21:27;8.43;;;6.90;;
14474;SDS011;7323;50.848;4.334;2023-05-10T11:23:57;7.77;;;6.20;;
14474;SDS011;7323;50.848;4.334;2023-05-10T11:26:24;8.50;;;7.13;;
14474;SDS011;7323;50.848;4.334;2023-05-10T11:28:59;10.07;;;6.83;;
14474;SDS011;7323;50.848;4.334;2023-05-10T11:31:26;8.57;;;6.27;;
14474;SDS011;7323;50.848;4.334;2023-05-10T11:33:57;8.23;;;6.93;;
14474;SDS011;7323;50.848;4.334;2023-05-10T11:36:25;10.07;;;7.63;;
14474;SDS011;7323;50.848;4.334;2023-05-10T11:38:52;10.60;;;7.90;;
14474;SDS011;7323;50.848;4.334;2023-05-10T11:41:19;9.93;;;8.47;;
14474;SDS011;7323;50.848;4.334;2023-05-10T11:43:54;7.77;;;6.90;;
14474;SDS011;7323;50.848;4.334;2023-05-10T11:46:21;9.70;;;7.53;;
14474;SDS011;7323;50.848;4.334;2023-05-10T11:48:53;9.13;;;7.30;;
14474;SDS011;7323;50.848;4.334;2023-05-10T11:51:22;9.03;;;7.33;;
14474;SDS011;7323;50.848;4.334;2023-05-10T11:53:53;9.60;;;7.80;;
14474;SDS011;7323;50.848;4.334;2023-05-10T11:58:56;9.30;;;7.73;;
14474;SDS011;7323;50.848;4.334;2023-05-10T12:01:26;9.83;;;7.93;;
14474;SDS011;7323;50.848;4.334;2023-05-10T12:03:54;9.67;;;7.83;;
14474;SDS011;7323;50.848;4.334;2023-05-10T12:06:30;9.50;;;7.60;;
14474;SDS011;7323;50.848;4.334;2023-05-10T12:08:58;10.17;;;8.10;;
14474;SDS011;7323;50.848;4.334;2023-05-10T12:11:29;10.87;;;8.17;;
14474;SDS011;7323;50.848;4.334;2023-05-10T12:13:58;10.30;;;8.67;;
14474;SDS011;7323;50.848;4.334;2023-05-10T12:16:36;11.53;;;9.03;;
14474;SDS011;7323;50.848;4.334;2023-05-10T12:19:08;10.63;;;9.10;;
14474;SDS011;7323;50.848;4.334;2023-05-10T12:26:55;10.90;;;9.23;;
14474;SDS011;7323;50.848;4.334;2023-05-10T12:29:22;13.90;;;10.27;;
14474;SDS011;7323;50.848;4.334;2023-05-10T12:31:52;12.97;;;9.77;;
14474;SDS011;7323;50.848;4.334;2023-05-10T12:37:12;9.97;;;7.80;;
14474;SDS011;7323;50.848;4.334;2023-05-10T12:39:43;10.83;;;8.27;;
14474;SDS011;7323;50.848;4.334;2023-05-10T12:42:10;10.07;;;7.70;;
14474;SDS011;7323;50.848;4.334;2023-05-10T12:44:36;8.67;;;7.23;;
14474;SDS011;7323;50.848;4.334;2023-05-10T12:47:02;7.30;;;6.60;;
14474;SDS011;7323;50.848;4.334;2023-05-10T12:49:30;9.10;;;6.23;;
14474;SDS011;7323;50.848;4.334;2023-05-10T12:51:56;7.10;;;5.67;;
14474;SDS011;7323;50.848;4.334;2023-05-10T12:54:22;7.33;;;6.50;;
14474;SDS011;7323;50.848;4.334;2023-05-10T12:56:48;8.10;;;6.27;;
14474;SDS011;7323;50.848;4.334;2023-05-10T12:59:13;7.47;;;6.17;;
14474;SDS011;7323;50.848;4.334;2023-05-10T13:01:39;8.07;;;5.83;;
14474;SDS011;7323;50.848;4.334;2023-05-10T13:04:05;6.73;;;5.83;;
14474;SDS011;7323;50.848;4.334;2023-05-10T13:06:30;7.00;;;5.53;;
14474;SDS011;7323;50.848;4.334;2023-05-10T13:08:56;7.20;;;5.90;;
14474;SDS011;7323;50.848;4.334;2023-05-10T13:11:22;6.20;;;5.30;;
14474;SDS011;7323;50.848;4.334;2023-05-10T13:13:48;7.37;;;5.80;;
14474;SDS011;7323;50.848;4.334;2023-05-10T13:18:43;7.00;;;5.93;;
14474;SDS011;7323;50.848;4.334;2023-05-10T13:21:08;8.50;;;6.27;;
14474;SDS011;7323;50.848;4.334;2023-05-10T13:23:34;8.20;;;6.57;;
14474;SDS011;7323;50.848;4.334;2023-05-10T13:26:01;8.03;;;7.23;;
14474;SDS011;7323;50.848;4.334;2023-05-10T13:28:27;8.40;;;7.10;;
14474;SDS011;7323;50.848;4.334;2023-05-10T13:30:53;9.20;;;7.80;;
14474;SDS011;7323;50.848;4.334;2023-05-10T13:33:18;9.20;;;7.43;;
14474;SDS011;7323;50.848;4.334;2023-05-10T13:35:44;7.70;;;6.90;;
14474;SDS011;7323;50.848;4.334;2023-05-10T13:38:10;8.80;;;7.80;;
14474;SDS011;7323;50.848;4.334;2023-05-10T13:40:38;9.63;;;7.93;;
14474;SDS011;7323;50.848;4.334;2023-05-10T13:43:05;8.50;;;7.27;;
14474;SDS011;7323;50.848;4.334;2023-05-10T13:45:32;9.43;;;8.37;;
14474;SDS011;7323;50.848;4.334;2023-05-10T13:47:58;8.73;;;7.80;;
14474;SDS011;7323;50.848;4.334;2023-05-10T13:50:24;10.63;;;8.87;;
14474;SDS011;7323;50.848;4.334;2023-05-10T13:52:49;9.27;;;8.37;;
14474;SDS011;7323;50.848;4.334;2023-05-10T13:55:16;10.23;;;8.63;;
14474;SDS011;7323;50.848;4.334;2023-05-10T13:57:43;10.00;;;8.97;;
14474;SDS011;7323;50.848;4.334;2023-05-10T14:00:09;11.03;;;8.90;;
14474;SDS011;7323;50.848;4.334;2023-05-10T14:02:35;11.63;;;8.80;;
14474;SDS011;7323;50.848;4.334;2023-05-10T14:05:01;10.43;;;9.33;;
14474;SDS011;7323;50.848;4.334;2023-05-10T14:07:28;11.80;;;10.47;;
14474;SDS011;7323;50.848;4.334;2023-05-10T14:09:53;12.93;;;10.60;;
14474;SDS011;7323;50.848;4.334;2023-05-10T14:12:20;12.43;;;10.90;;
14474;SDS011;7323;50.848;4.334;2023-05-10T14:14:47;13.53;;;10.70;;
14474;SDS011;7323;50.848;4.334;2023-05-10T14:17:12;12.30;;;11.00;;
14474;SDS011;7323;50.848;4.334;2023-05-10T14:19:38;12.60;;;10.90;;
14474;SDS011;7323;50.848;4.334;2023-05-10T14:22:05;12.73;;;9.87;;
14474;SDS011;7323;50.848;4.334;2023-05-10T14:24:31;12.50;;;10.47;;
14474;SDS011;7323;50.848;4.334;2023-05-10T14:26:59;12.33;;;10.30;;
14474;SDS011;7323;50.848;4.334;2023-05-10T14:29:25;12.57;;;9.30;;
14474;SDS011;7323;50.848;4.334;2023-05-10T14:31:53;10.93;;;9.83;;
14474;SDS011;7323;50.848;4.334;2023-05-10T14:34:19;11.83;;;10.50;;
14474;SDS011;7323;50.848;4.334;2023-05-10T14:36:45;14.33;;;9.63;;
14474;SDS011;7323;50.848;4.334;2023-05-10T14:39:10;14.07;;;10.53;;
14474;SDS011;7323;50.848;4.334;2023-05-10T14:41:38;13.47;;;10.97;;
14474;SDS011;7323;50.848;4.334;2023-05-10T14:44:06;14.63;;;11.43;;
14474;SDS011;7323;50.848;4.334;2023-05-10T14:46:32;14.03;;;10.73;;
14474;SDS011;7323;50.848;4.334;2023-05-10T14:48:59;13.83;;;10.70;;
14474;SDS011;7323;50.848;4.334;2023-05-10T14:51:24;12.43;;;10.43;;
14474;SDS011;7323;50.848;4.334;2023-05-10T14:53:51;14.80;;;11.10;;
14474;SDS011;7323;50.848;4.334;2023-05-10T14:56:17;11.70;;;9.73;;
14474;SDS011;7323;50.848;4.334;2023-05-10T14:58:42;13.97;;;11.07;;
14474;SDS011;7323;50.848;4.334;2023-05-10T15:01:09;13.20;;;11.47;;
14474;SDS011;7323;50.848;4.334;2023-05-10T15:03:35;16.50;;;11.77;;
14474;SDS011;7323;50.848;4.334;2023-05-10T15:06:01;13.03;;;11.00;;
14474;SDS011;7323;50.848;4.334;2023-05-10T15:08:27;10.53;;;7.97;;
14474;SDS011;7323;50.848;4.334;2023-05-10T15:10:53;7.93;;;5.30;;
14474;SDS011;7323;50.848;4.334;2023-05-10T15:13:20;9.37;;;4.57;;
14474;SDS011;7323;50.848;4.334;2023-05-10T15:15:46;6.90;;;4.17;;
14474;SDS011;7323;50.848;4.334;2023-05-10T15:18:12;8.93;;;4.67;;
14474;SDS011;7323;50.848;4.334;2023-05-10T15:20:39;6.93;;;4.70;;
14474;SDS011;7323;50.848;4.334;2023-05-10T15:23:05;5.53;;;3.90;;
14474;SDS011;7323;50.848;4.334;2023-05-10T15:25:30;7.53;;;4.67;;
14474;SDS011;7323;50.848;4.334;2023-05-10T15:27:59;7.47;;;4.13;;
14474;SDS011;7323;50.848;4.334;2023-05-10T15:30:24;6.47;;;3.30;;
14474;SDS011;7323;50.848;4.334;2023-05-10T15:32:50;9.13;;;3.97;;
14474;SDS011;7323;50.848;4.334;2023-05-10T15:35:16;6.60;;;4.10;;
14474;SDS011;7323;50.848;4.334;2023-05-10T15:37:42;7.33;;;4.07;;
14474;SDS011;7323;50.848;4.334;2023-05-10T15:43:37;6.10;;;3.27;;
14474;SDS011;7323;50.848;4.334;2023-05-10T15:46:09;9.13;;;3.67;;
14474;SDS011;7323;50.848;4.334;2023-05-10T15:48:48;7.83;;;3.60;;